createdAt,value
2022-09-15T00:00:47.039Z,98.49
2022-09-15T00:01:46.015Z,98.79
2022-09-15T00:02:46.409Z,98.49
2022-09-15T00:03:46.443Z,98.49
2022-09-15T00:04:46.306Z,98.59
2022-09-15T00:05:46.443Z,98.49
2022-09-15T00:06:46.503Z,98.39
2022-09-15T00:07:46.429Z,98.29
2022-09-15T00:08:46.382Z,98.09
2022-09-15T00:09:45.562Z,98.09
2022-09-15T00:10:46.443Z,98.29
2022-09-15T00:11:47.213Z,98.19
2022-09-15T00:12:46.334Z,98.29
2022-09-15T00:13:46.182Z,98.19
2022-09-15T00:14:46.984Z,98.09
2022-09-15T00:15:46.282Z,98.19
2022-09-15T00:16:47.055Z,98.09
2022-09-15T00:17:46.272Z,98.09
2022-09-15T00:18:46.293Z,98.19
2022-09-15T00:19:46.882Z,98.19
2022-09-15T00:20:47.313Z,98.09
2022-09-15T00:21:46.303Z,98.39
2022-09-15T00:22:46.333Z,98.49
2022-09-15T00:23:46.162Z,98.49
2022-09-15T00:24:45.422Z,98.49
2022-09-15T00:25:46.176Z,98.49
2022-09-15T00:26:46.092Z,98.49
2022-09-15T00:27:46.193Z,98.39
2022-09-15T00:28:45.383Z,98.39
2022-09-15T00:29:46.353Z,98.39
2022-09-15T00:30:46.075Z,98.29
2022-09-15T00:31:45.393Z,98.29
2022-09-15T00:32:46.004Z,98.39
2022-09-15T00:33:46.231Z,98.39
2022-09-15T00:34:46.054Z,98.29
2022-09-15T00:35:46.082Z,98.09
2022-09-15T00:36:46.104Z,98.39
2022-09-15T00:37:46.083Z,98.29
2022-09-15T00:38:45.971Z,98.19
2022-09-15T00:39:46.120Z,98.19
2022-09-15T00:40:46.085Z,98.04
2022-09-15T00:41:45.872Z,97.94
2022-09-15T00:42:46.013Z,98.04
2022-09-15T00:43:46.622Z,97.94
2022-09-15T00:44:45.992Z,97.74
2022-09-15T00:45:46.767Z,97.84
2022-09-15T00:46:58.685Z,97.64
2022-09-15T00:47:46.012Z,97.84
2022-09-15T00:48:46.016Z,97.94
2022-09-15T00:49:45.872Z,97.74
2022-09-15T00:50:45.143Z,97.64
2022-09-15T00:51:45.925Z,97.64
2022-09-15T00:52:46.002Z,97.64
2022-09-15T00:53:45.843Z,97.64
2022-09-15T00:54:45.923Z,97.78
2022-09-15T00:55:45.112Z,97.69
2022-09-15T00:56:45.932Z,97.89
2022-09-15T00:57:45.893Z,97.78
2022-09-15T00:58:45.762Z,97.89
2022-09-15T00:59:46.653Z,97.89
2022-09-15T01:00:45.910Z,97.99
2022-09-15T01:01:45.979Z,97.99
2022-09-15T01:02:45.797Z,98.19
2022-09-15T01:03:46.034Z,98.09
2022-09-15T01:04:45.682Z,98.09
2022-09-15T01:05:45.854Z,97.78
2022-09-15T01:06:45.673Z,97.89
2022-09-15T01:07:45.766Z,97.78
2022-09-15T01:08:45.063Z,97.49
2022-09-15T01:09:46.462Z,97.24
2022-09-15T01:10:45.683Z,97.49
2022-09-15T01:11:45.552Z,97.33
2022-09-15T01:12:45.652Z,97.28
2022-09-15T01:13:45.563Z,97.03
2022-09-15T01:14:45.737Z,96.98
2022-09-15T01:15:45.532Z,96.93
2022-09-15T01:16:45.794Z,96.83
2022-09-15T01:17:45.903Z,96.68
2022-09-15T01:18:45.842Z,96.88
2022-09-15T01:19:45.523Z,96.78
2022-09-15T01:20:45.673Z,96.88
2022-09-15T01:21:45.556Z,96.88
2022-09-15T01:22:45.622Z,97.08
2022-09-15T01:23:45.523Z,97.28
2022-09-15T01:24:45.715Z,97.43
2022-09-15T01:25:46.433Z,97.43
2022-09-15T01:26:45.483Z,97.53
2022-09-15T01:27:44.773Z,97.53
2022-09-15T01:28:45.353Z,97.83
2022-09-15T01:29:45.613Z,97.83
2022-09-15T01:30:45.423Z,97.63
2022-09-15T01:31:44.733Z,97.63
2022-09-15T01:32:44.716Z,97.63
2022-09-15T01:33:45.654Z,97.63
2022-09-15T01:34:45.494Z,97.73
2022-09-15T01:35:45.606Z,97.73
2022-09-15T01:36:45.364Z,97.63
2022-09-15T01:37:44.653Z,97.63
2022-09-15T01:38:44.805Z,97.53
2022-09-15T01:39:45.915Z,97.43
2022-09-15T01:40:44.882Z,97.33
2022-09-15T01:41:44.593Z,97.63
2022-09-15T01:42:46.013Z,97.98
2022-09-15T01:43:46.243Z,98.08
2022-09-15T01:44:44.757Z,98.38
2022-09-15T01:45:45.298Z,98.38
2022-09-15T01:46:44.564Z,98.79
2022-09-15T01:47:45.952Z,98.38
2022-09-15T01:48:44.900Z,97.98
2022-09-15T01:49:45.223Z,97.78
2022-09-15T01:50:44.564Z,97.47
2022-09-15T01:51:45.242Z,97.27
2022-09-15T01:52:45.282Z,97.27
2022-09-15T01:53:44.515Z,96.92
2022-09-15T01:54:45.333Z,96.72
2022-09-15T01:55:44.534Z,96.52
2022-09-15T01:56:46.223Z,96.52
2022-09-15T01:57:44.903Z,96.52
2022-09-15T01:58:44.442Z,96.72
2022-09-15T01:59:46.032Z,96.62
2022-09-15T02:00:46.088Z,96.97
2022-09-15T02:01:44.430Z,96.97
2022-09-15T02:02:45.952Z,97.17
2022-09-15T02:03:45.952Z,96.97
2022-09-15T02:04:44.382Z,97.13
2022-09-15T02:05:45.333Z,97.23
2022-09-15T02:06:44.404Z,97.03
2022-09-15T02:07:46.262Z,97.13
2022-09-15T02:08:45.172Z,96.92
2022-09-15T02:09:45.223Z,97.03
2022-09-15T02:10:45.104Z,97.03
2022-09-15T02:11:44.372Z,96.83
2022-09-15T02:12:44.318Z,97.03
2022-09-15T02:13:46.014Z,96.92
2022-09-15T02:14:44.768Z,97.03
2022-09-15T02:15:44.272Z,97.07
2022-09-15T02:16:46.123Z,97.17
2022-09-15T02:17:45.413Z,97.27
2022-09-15T02:18:45.135Z,97.47
2022-09-15T02:19:45.013Z,97.67
2022-09-15T02:20:44.222Z,97.58
2022-09-15T02:21:44.883Z,97.38
2022-09-15T02:22:44.304Z,97.38
2022-09-15T02:23:45.666Z,97.47
2022-09-15T02:24:44.572Z,97.38
2022-09-15T02:25:44.163Z,97.58
2022-09-15T02:26:45.484Z,97.58
2022-09-15T02:27:44.483Z,97.58
2022-09-15T02:28:45.862Z,97.58
2022-09-15T02:29:44.114Z,97.78
2022-09-15T02:30:44.102Z,97.98
2022-09-15T02:31:45.805Z,97.63
2022-09-15T02:32:44.063Z,97.83
2022-09-15T02:33:45.522Z,97.73
2022-09-15T02:34:44.482Z,97.83
2022-09-15T02:35:44.843Z,97.83
2022-09-15T02:36:44.735Z,97.83
2022-09-15T02:37:44.855Z,97.83
2022-09-15T02:38:45.165Z,98.03
2022-09-15T02:39:43.993Z,98.28
2022-09-15T02:40:44.845Z,98.48
2022-09-15T02:41:43.982Z,98.38
2022-09-15T02:42:44.702Z,98.38
2022-09-15T02:43:44.786Z,98.44
2022-09-15T02:44:43.962Z,98.24
2022-09-15T02:45:45.625Z,98.24
2022-09-15T02:46:44.762Z,98.24
2022-09-15T02:47:44.693Z,98.03
2022-09-15T02:48:43.954Z,97.93
2022-09-15T02:49:44.763Z,97.93
2022-09-15T02:50:43.892Z,97.83
2022-09-15T02:51:44.623Z,98.03
2022-09-15T02:52:44.732Z,98.13
2022-09-15T02:53:44.703Z,98.28
2022-09-15T02:54:44.703Z,98.38
2022-09-15T02:55:44.603Z,98.38
2022-09-15T02:56:43.834Z,98.38
2022-09-15T02:57:45.544Z,98.48
2022-09-15T02:58:44.382Z,98.28
2022-09-15T02:59:44.792Z,98.13
2022-09-15T03:00:43.863Z,98.03
2022-09-15T03:01:44.747Z,97.73
2022-09-15T03:02:44.424Z,97.73
2022-09-15T03:03:44.602Z,97.53
2022-09-15T03:04:44.523Z,97.43
2022-09-15T03:05:43.751Z,97.23
2022-09-15T03:06:44.452Z,97.33
2022-09-15T03:07:44.553Z,97.13
2022-09-15T03:08:43.726Z,97.03
2022-09-15T03:09:44.715Z,96.92
2022-09-15T03:10:45.133Z,96.92
2022-09-15T03:11:43.663Z,96.92
2022-09-15T03:12:44.422Z,96.83
2022-09-15T03:13:43.662Z,96.83
2022-09-15T03:14:44.531Z,96.72
2022-09-15T03:15:44.441Z,96.52
2022-09-15T03:16:44.546Z,96.42
2022-09-15T03:17:44.634Z,96.22
2022-09-15T03:18:43.592Z,95.92
2022-09-15T03:19:44.352Z,95.72
2022-09-15T03:20:44.413Z,95.81
2022-09-15T03:21:43.583Z,95.27
2022-09-15T03:22:44.463Z,95.37
2022-09-15T03:23:44.294Z,95.47
2022-09-15T03:24:44.463Z,95.07
2022-09-15T03:25:43.540Z,94.87
2022-09-15T03:26:44.333Z,94.67
2022-09-15T03:27:43.503Z,94.67
2022-09-15T03:28:44.432Z,94.56
2022-09-15T03:29:44.325Z,94.36
2022-09-15T03:30:44.103Z,94.46
2022-09-15T03:31:44.374Z,93.96
2022-09-15T03:32:44.151Z,93.76
2022-09-15T03:33:44.382Z,93.66
2022-09-15T03:34:44.104Z,93.46
2022-09-15T03:35:44.403Z,93.55
2022-09-15T03:36:44.112Z,93.35
2022-09-15T03:37:44.314Z,93.55
2022-09-15T03:38:44.318Z,93.46
2022-09-15T03:39:44.422Z,93.05
2022-09-15T03:40:44.133Z,93.35
2022-09-15T03:41:44.325Z,93.15
2022-09-15T03:42:44.163Z,93.96
2022-09-15T03:43:44.333Z,94.51
2022-09-15T03:44:44.092Z,95.31
2022-09-15T03:45:45.074Z,95.51
2022-09-15T03:46:44.052Z,95.21
2022-09-15T03:47:44.034Z,95.61
2022-09-15T03:48:44.104Z,95.21
2022-09-15T03:49:43.952Z,94.35
2022-09-15T03:50:44.212Z,94.55
2022-09-15T03:51:44.032Z,94.75
2022-09-15T03:52:44.021Z,94.95
2022-09-15T03:53:43.252Z,95.36
2022-09-15T03:54:44.044Z,95.36
2022-09-15T03:55:44.113Z,95.96
2022-09-15T03:56:43.263Z,96.36
2022-09-15T03:57:44.534Z,96.77
2022-09-15T03:58:43.512Z,96.77
2022-09-15T03:59:43.183Z,96.67
2022-09-15T04:00:44.499Z,95.76
2022-09-15T04:01:43.505Z,95.36
2022-09-15T04:02:43.133Z,95.46
2022-09-15T04:03:48.856Z,95.56
2022-09-15T04:04:43.765Z,95.66
2022-09-15T04:05:43.131Z,95.20
2022-09-15T04:06:44.812Z,94.80
2022-09-15T04:07:43.602Z,95.20
2022-09-15T04:08:44.393Z,95.10
2022-09-15T04:09:43.082Z,95.30
2022-09-15T04:10:44.484Z,95.70
2022-09-15T04:11:43.812Z,95.10
2022-09-15T04:12:43.532Z,95.81
2022-09-15T04:13:44.586Z,95.61
2022-09-15T04:14:43.524Z,95.81
2022-09-15T04:15:43.023Z,96.01
2022-09-15T04:16:44.880Z,96.11
2022-09-15T04:17:42.982Z,95.81
2022-09-15T04:18:44.572Z,95.10
2022-09-15T04:19:43.693Z,95.40
2022-09-15T04:20:42.944Z,94.80
2022-09-15T04:21:44.503Z,94.90
2022-09-15T04:22:43.753Z,94.59
2022-09-15T04:23:43.583Z,94.49
2022-09-15T04:24:43.753Z,94.80
2022-09-15T04:25:44.403Z,95.40
2022-09-15T04:26:43.732Z,95.20
2022-09-15T04:27:43.664Z,95.00
2022-09-15T04:28:43.728Z,95.81
2022-09-15T04:29:43.604Z,95.81
2022-09-15T04:30:44.252Z,94.80
2022-09-15T04:31:43.756Z,95.40
2022-09-15T04:32:45.422Z,95.00
2022-09-15T04:33:44.374Z,95.00
2022-09-15T04:34:43.652Z,94.70
2022-09-15T04:35:43.905Z,94.70
2022-09-15T04:36:42.885Z,94.09
2022-09-15T04:37:42.844Z,94.25
2022-09-15T04:38:43.882Z,94.39
2022-09-15T04:39:42.763Z,94.19
2022-09-15T04:40:42.744Z,93.99
2022-09-15T04:41:43.598Z,94.29
2022-09-15T04:42:43.453Z,94.59
2022-09-15T04:43:43.944Z,94.75
2022-09-15T04:44:43.473Z,94.85
2022-09-15T04:45:43.492Z,94.25
2022-09-15T04:46:43.650Z,94.90
2022-09-15T04:47:42.674Z,94.65
2022-09-15T04:48:44.047Z,95.56
2022-09-15T04:49:43.072Z,95.96
2022-09-15T04:50:42.679Z,96.26
2022-09-15T04:51:44.115Z,95.46
2022-09-15T04:52:43.502Z,94.45
2022-09-15T04:53:43.982Z,94.95
2022-09-15T04:54:43.534Z,94.25
2022-09-15T04:55:42.592Z,94.15
2022-09-15T04:56:44.072Z,94.45
2022-09-15T04:57:43.013Z,94.15
2022-09-15T04:58:42.613Z,93.95
2022-09-15T04:59:44.023Z,94.05
2022-09-15T05:00:43.580Z,93.70
2022-09-15T05:01:42.574Z,94.10
2022-09-15T05:02:44.295Z,93.40
2022-09-15T05:03:43.043Z,93.40
2022-09-15T05:04:42.502Z,93.60
2022-09-15T05:05:43.275Z,94.00
2022-09-15T05:06:42.482Z,93.70
2022-09-15T05:07:43.993Z,93.90
2022-09-15T05:08:42.975Z,94.16
2022-09-15T05:09:42.442Z,93.35
2022-09-15T05:10:44.455Z,92.75
2022-09-15T05:11:43.583Z,92.95
2022-09-15T05:12:42.443Z,93.05
2022-09-15T05:13:43.964Z,93.96
2022-09-15T05:14:42.880Z,94.01
2022-09-15T05:15:42.394Z,94.01
2022-09-15T05:16:44.053Z,94.21
2022-09-15T05:17:42.962Z,93.01
2022-09-15T05:18:42.403Z,93.91
2022-09-15T05:19:42.933Z,94.42
2022-09-15T05:20:42.324Z,94.92
2022-09-15T05:21:44.032Z,94.82
2022-09-15T05:22:43.272Z,94.92
2022-09-15T05:23:42.362Z,94.82
2022-09-15T05:24:44.184Z,95.02
2022-09-15T05:25:43.419Z,95.22
2022-09-15T05:26:42.285Z,95.02
2022-09-15T05:27:43.093Z,95.12
2022-09-15T05:28:43.593Z,95.32
2022-09-15T05:29:43.073Z,95.42
2022-09-15T05:30:44.411Z,95.38
2022-09-15T05:31:43.036Z,95.07
2022-09-15T05:32:42.994Z,95.38
2022-09-15T05:33:43.072Z,95.18
2022-09-15T05:34:42.302Z,94.67
2022-09-15T05:35:43.013Z,95.07
2022-09-15T05:36:43.804Z,94.78
2022-09-15T05:37:42.154Z,95.58
2022-09-15T05:38:43.622Z,95.07
2022-09-15T05:39:43.063Z,94.98
2022-09-15T05:40:42.134Z,95.48
2022-09-15T05:41:43.613Z,94.83
2022-09-15T05:42:42.867Z,95.23
2022-09-15T05:43:42.081Z,94.43
2022-09-15T05:44:43.494Z,94.63
2022-09-15T05:45:42.364Z,93.62
2022-09-15T05:46:42.094Z,91.82
2022-09-15T05:47:42.752Z,90.86
2022-09-15T05:48:42.043Z,90.36
2022-09-15T05:49:42.758Z,89.96
2022-09-15T05:50:43.804Z,89.86
2022-09-15T05:51:42.022Z,89.56
2022-09-15T05:52:43.994Z,88.91
2022-09-15T05:53:42.633Z,89.82
2022-09-15T05:54:42.873Z,89.62
2022-09-15T05:55:42.663Z,89.42
2022-09-15T05:56:41.973Z,89.11
2022-09-15T05:57:43.743Z,89.07
2022-09-15T05:58:42.573Z,88.77
2022-09-15T05:59:44.193Z,88.07
2022-09-15T06:00:41.922Z,89.27
2022-09-15T06:01:42.065Z,88.67
2022-09-15T06:02:42.775Z,89.47
2022-09-15T06:03:41.881Z,88.67
2022-09-15T06:04:43.474Z,88.37
2022-09-15T06:05:42.822Z,88.27
2022-09-15T06:06:42.562Z,88.37
2022-09-15T06:07:41.862Z,88.63
2022-09-15T06:08:44.427Z,88.12
2022-09-15T06:09:42.834Z,87.82
2022-09-15T06:10:42.686Z,88.02
2022-09-15T06:11:41.808Z,88.23
2022-09-15T06:12:42.472Z,87.82
2022-09-15T06:13:42.582Z,88.43
2022-09-15T06:14:41.773Z,87.82
2022-09-15T06:15:42.696Z,88.12
2022-09-15T06:16:42.494Z,87.12
2022-09-15T06:17:41.743Z,88.53
2022-09-15T06:18:42.532Z,88.17
2022-09-15T06:19:42.354Z,88.17
2022-09-15T06:20:42.552Z,88.17
2022-09-15T06:21:42.474Z,88.47
2022-09-15T06:22:42.533Z,88.27
2022-09-15T06:23:45.046Z,88.77
2022-09-15T06:24:42.452Z,88.07
2022-09-15T06:25:42.412Z,88.37
2022-09-15T06:26:41.682Z,88.37
2022-09-15T06:27:43.584Z,87.66
2022-09-15T06:28:43.472Z,86.92
2022-09-15T06:29:42.363Z,86.82
2022-09-15T06:30:42.513Z,86.12
2022-09-15T06:31:41.666Z,86.42
2022-09-15T06:32:46.176Z,86.62
2022-09-15T06:33:42.733Z,86.18
2022-09-15T06:34:42.304Z,86.28
2022-09-15T06:35:42.406Z,86.68
2022-09-15T06:36:42.323Z,85.38
2022-09-15T06:37:42.363Z,85.13
2022-09-15T06:38:42.195Z,84.93
2022-09-15T06:39:42.363Z,84.53
2022-09-15T06:40:42.264Z,84.69
2022-09-15T06:42:01.252Z,85.69
2022-09-15T06:42:42.253Z,85.10
2022-09-15T06:43:42.905Z,84.89
2022-09-15T06:44:42.233Z,84.09
2022-09-15T06:45:42.328Z,83.89
2022-09-15T06:46:42.427Z,84.69
2022-09-15T06:47:42.306Z,83.69
2022-09-15T06:48:44.311Z,84.29
2022-09-15T06:49:41.414Z,83.99
2022-09-15T06:50:42.285Z,83.95
2022-09-15T06:51:42.095Z,83.55
2022-09-15T06:52:41.435Z,82.65
2022-09-15T06:53:42.155Z,82.35
2022-09-15T06:54:42.375Z,82.11
2022-09-15T06:55:43.066Z,81.21
2022-09-15T06:56:41.325Z,80.80
2022-09-15T06:57:43.575Z,79.80
2022-09-15T06:58:42.645Z,79.91
2022-09-15T06:59:41.994Z,80.21
2022-09-15T07:00:42.113Z,79.80
2022-09-15T07:01:41.300Z,81.15
2022-09-15T07:02:42.140Z,81.24
2022-09-15T07:03:42.218Z,82.24
2022-09-15T07:05:02.254Z,80.94
2022-09-15T07:05:42.587Z,80.80
2022-09-15T07:06:41.853Z,80.71
2022-09-15T07:07:41.237Z,79.17
2022-09-15T07:08:41.934Z,80.17
2022-09-15T07:09:41.909Z,80.30
2022-09-15T07:10:41.885Z,80.80
2022-09-15T07:11:43.025Z,79.80
2022-09-15T07:12:41.226Z,80.97
2022-09-15T07:13:42.045Z,79.80
2022-09-15T07:14:41.187Z,80.17
2022-09-15T07:15:42.005Z,80.27
2022-09-15T07:16:43.351Z,79.53
2022-09-15T07:17:41.955Z,79.39
2022-09-15T07:18:43.497Z,78.63
2022-09-15T07:19:41.985Z,78.03
2022-09-15T07:20:41.964Z,79.43
2022-09-15T07:21:42.064Z,78.53
2022-09-15T07:22:41.986Z,79.43
2022-09-15T07:23:42.391Z,78.73
2022-09-15T07:24:41.055Z,77.93
2022-09-15T07:25:41.767Z,77.33
2022-09-15T07:26:41.025Z,77.53
2022-09-15T07:27:41.906Z,79.33
2022-09-15T07:28:41.907Z,78.13
2022-09-15T07:29:41.806Z,79.09
2022-09-15T07:30:41.824Z,77.33
2022-09-15T07:31:41.002Z,77.83
2022-09-15T07:32:41.936Z,79.33
2022-09-15T07:34:41.819Z,77.73
2022-09-15T07:35:41.998Z,78.33
2022-09-15T07:36:42.529Z,77.13
2022-09-15T07:37:42.069Z,77.99
2022-09-15T07:38:42.179Z,78.19
2022-09-15T07:39:42.049Z,76.19
2022-09-15T07:40:42.099Z,76.79
2022-09-15T07:41:42.118Z,77.49
2022-09-15T07:42:42.099Z,76.19
2022-09-15T07:43:42.042Z,77.69
2022-09-15T07:44:41.910Z,77.36
2022-09-15T07:45:42.081Z,76.95
2022-09-15T07:46:41.948Z,76.48
2022-09-15T07:47:42.038Z,75.18
2022-09-15T07:48:42.033Z,74.68
2022-09-15T07:49:42.128Z,77.98
2022-09-15T07:50:41.838Z,76.78
2022-09-15T07:51:42.108Z,75.59
2022-09-15T07:52:41.279Z,74.08
2022-09-15T07:53:42.060Z,74.22
2022-09-15T07:54:41.999Z,75.42
2022-09-15T07:55:42.110Z,75.52
2022-09-15T07:56:41.839Z,73.88
2022-09-15T07:57:41.899Z,73.99
2022-09-15T07:58:41.909Z,75.35
2022-09-15T07:59:41.929Z,73.82
2022-09-15T08:00:41.785Z,72.19
2022-09-15T08:01:41.795Z,71.55
2022-09-15T08:02:41.999Z,72.05
2022-09-15T08:03:41.934Z,70.56
2022-09-15T08:04:41.960Z,71.09
2022-09-15T08:05:45.436Z,71.98
2022-09-15T08:06:42.098Z,71.48
2022-09-15T08:07:42.060Z,71.98
2022-09-15T08:08:41.879Z,70.49
2022-09-15T08:09:42.159Z,70.36
2022-09-15T08:10:42.018Z,69.32
2022-09-15T08:11:42.345Z,68.30
2022-09-15T08:12:41.828Z,65.89
2022-09-15T08:13:41.750Z,61.96
2022-09-15T08:14:41.158Z,64.13
2022-09-15T08:15:42.060Z,63.13
2022-09-15T08:16:41.619Z,64.66
2022-09-15T08:17:41.769Z,64.17
2022-09-15T08:18:41.638Z,65.86
2022-09-15T08:19:43.399Z,59.89
2022-09-15T08:20:40.890Z,60.47
2022-09-15T08:21:41.419Z,62.78
2022-09-15T08:22:41.539Z,63.51
2022-09-15T08:23:40.858Z,64.89
2022-09-15T08:24:41.670Z,60.94
2022-09-15T08:25:41.885Z,59.14
2022-09-15T08:26:41.501Z,56.37
2022-09-15T08:27:41.599Z,58.32
2022-09-15T08:28:41.672Z,57.65
2022-09-15T08:29:41.818Z,58.56
2022-09-15T08:30:41.659Z,62.21
2022-09-15T08:31:41.450Z,64.62
2022-09-15T08:32:40.739Z,63.76
2022-09-15T08:33:45.437Z,63.49
2022-09-15T08:34:41.538Z,63.43
2022-09-15T08:35:41.359Z,64.42
2022-09-15T08:36:42.279Z,65.15
2022-09-15T08:37:41.758Z,65.61
2022-09-15T08:38:41.551Z,65.35
2022-09-15T08:39:41.380Z,64.29
2022-09-15T08:40:41.679Z,64.56
2022-09-15T08:41:41.483Z,64.46
2022-09-15T08:42:44.842Z,64.56
2022-09-15T08:43:41.654Z,65.12
2022-09-15T08:44:41.638Z,62.77
2022-09-15T08:45:41.409Z,64.19
2022-09-15T08:46:41.318Z,64.75
2022-09-15T08:47:41.388Z,65.45
2022-09-15T08:48:41.179Z,66.47
2022-09-15T08:49:51.550Z,67.07
2022-09-15T08:50:42.559Z,66.11
2022-09-15T08:51:41.038Z,67.33
2022-09-15T08:52:41.239Z,69.82
2022-09-15T08:53:41.374Z,68.63
2022-09-15T08:54:41.408Z,68.99
2022-09-15T08:55:41.340Z,67.63
2022-09-15T08:56:41.295Z,68.03
2022-09-15T08:57:41.379Z,67.36
2022-09-15T08:58:41.206Z,67.86
2022-09-15T08:59:41.456Z,68.46
2022-09-15T09:00:41.223Z,68.56
2022-09-15T09:01:41.406Z,68.07
2022-09-15T09:02:41.323Z,68.76
2022-09-15T09:03:41.118Z,67.66
2022-09-15T09:04:41.260Z,67.93
2022-09-15T09:05:40.418Z,66.74
2022-09-15T09:06:42.389Z,66.14
2022-09-15T09:07:41.079Z,64.84
2022-09-15T09:08:41.275Z,65.44
2022-09-15T09:09:41.149Z,66.17
2022-09-15T09:10:41.139Z,67.07
2022-09-15T09:11:41.119Z,66.37
2022-09-15T09:12:41.187Z,65.67
2022-09-15T09:13:41.048Z,67.00
2022-09-15T09:14:41.178Z,67.36
2022-09-15T09:15:41.125Z,67.10
2022-09-15T09:16:41.129Z,65.41
2022-09-15T09:17:41.122Z,66.30
2022-09-15T09:18:40.968Z,66.50
2022-09-15T09:19:41.638Z,66.60
2022-09-15T09:20:40.979Z,66.60
2022-09-15T09:21:41.122Z,65.91
2022-09-15T09:22:44.221Z,67.13
2022-09-15T09:23:41.029Z,66.00
2022-09-15T09:24:40.948Z,67.03
2022-09-15T09:25:41.057Z,67.13
2022-09-15T09:26:40.889Z,67.33
2022-09-15T09:27:41.030Z,67.43
2022-09-15T09:28:40.238Z,67.53
2022-09-15T09:29:40.979Z,69.23
2022-09-15T09:30:40.927Z,67.83
2022-09-15T09:31:41.069Z,68.06
2022-09-15T09:32:41.058Z,69.96
2022-09-15T09:33:45.198Z,68.99
2022-09-15T09:34:41.030Z,68.49
2022-09-15T09:35:40.749Z,69.69
2022-09-15T09:36:40.999Z,69.49
2022-09-15T09:37:40.809Z,69.20
2022-09-15T09:38:40.858Z,68.89
2022-09-15T09:39:40.799Z,70.29
2022-09-15T09:40:40.859Z,69.99
2022-09-15T09:41:40.799Z,71.29
2022-09-15T09:42:40.868Z,71.79
2022-09-15T09:43:40.810Z,72.39
2022-09-15T09:44:40.832Z,71.89
2022-09-15T09:45:40.799Z,71.89
2022-09-15T09:46:40.157Z,71.29
2022-09-15T09:47:40.960Z,72.29
2022-09-15T09:48:40.818Z,72.05
2022-09-15T09:49:40.829Z,69.89
2022-09-15T09:50:40.640Z,71.89
2022-09-15T09:51:40.839Z,72.29
2022-09-15T09:52:40.689Z,71.29
2022-09-15T09:53:46.499Z,71.89
2022-09-15T09:54:40.648Z,70.69
2022-09-15T09:55:40.842Z,71.42
2022-09-15T09:56:40.698Z,71.42
2022-09-15T09:57:41.003Z,72.52
2022-09-15T09:58:40.648Z,71.03
2022-09-15T09:59:40.682Z,72.52
2022-09-15T10:00:40.538Z,71.52
2022-09-15T10:01:40.757Z,73.12
2022-09-15T10:02:40.570Z,74.55
2022-09-15T10:03:41.438Z,75.46
2022-09-15T10:04:41.286Z,76.39
2022-09-15T10:05:40.502Z,76.99
2022-09-15T10:06:40.709Z,77.19
2022-09-15T10:07:40.359Z,78.29
2022-09-15T10:08:39.758Z,78.33
2022-09-15T10:09:40.420Z,77.43
2022-09-15T10:10:39.748Z,78.33
2022-09-15T10:11:40.568Z,79.97
2022-09-15T10:12:40.678Z,80.07
2022-09-15T10:13:40.419Z,79.97
2022-09-15T10:14:40.578Z,79.77
2022-09-15T10:15:40.579Z,79.80
2022-09-15T10:16:40.530Z,80.61
2022-09-15T10:17:40.530Z,81.81
2022-09-15T10:18:40.678Z,82.85
2022-09-15T10:19:40.419Z,84.35
2022-09-15T10:20:40.248Z,81.88
2022-09-15T10:21:40.570Z,83.89
2022-09-15T10:22:40.278Z,83.99
2022-09-15T10:23:40.398Z,85.39
2022-09-15T10:24:40.299Z,85.30
2022-09-15T10:25:58.157Z,83.23
2022-09-15T10:26:40.248Z,84.53
2022-09-15T10:27:40.350Z,83.83
2022-09-15T10:28:40.449Z,85.13
2022-09-15T10:29:41.209Z,85.88
2022-09-15T10:30:40.368Z,86.88
2022-09-15T10:31:40.546Z,86.68
2022-09-15T10:32:40.300Z,86.28
2022-09-15T10:33:40.348Z,87.08
2022-09-15T10:34:40.358Z,86.38
2022-09-15T10:35:40.069Z,87.02
2022-09-15T10:36:39.478Z,87.32
2022-09-15T10:37:40.418Z,87.22
2022-09-15T10:38:39.509Z,87.52
2022-09-15T10:39:40.188Z,88.57
2022-09-15T10:40:40.209Z,87.77
2022-09-15T10:41:40.078Z,87.96
2022-09-15T10:42:40.299Z,88.27
2022-09-15T10:43:39.398Z,87.26
2022-09-15T10:44:40.870Z,87.96
2022-09-15T10:45:40.312Z,87.96
2022-09-15T10:46:39.600Z,88.81
2022-09-15T10:47:41.289Z,89.92
2022-09-15T10:48:40.129Z,90.52
2022-09-15T10:49:39.348Z,90.42
2022-09-15T10:50:39.959Z,89.72
2022-09-15T10:51:39.318Z,91.22
2022-09-15T10:52:39.979Z,90.72
2022-09-15T10:53:39.319Z,89.92
2022-09-15T10:54:41.049Z,89.42
2022-09-15T10:55:52.322Z,89.36
2022-09-15T10:56:41.069Z,90.97
2022-09-15T10:57:40.148Z,89.50
2022-09-15T10:58:42.310Z,91.01
2022-09-15T10:59:40.058Z,91.57
2022-09-15T11:00:39.984Z,90.00
2022-09-15T11:01:39.282Z,90.41
2022-09-15T11:02:40.841Z,90.81
2022-09-15T11:03:39.798Z,90.41
2022-09-15T11:04:41.131Z,90.41
2022-09-15T11:05:40.058Z,90.20
2022-09-15T11:06:39.929Z,90.65
2022-09-15T11:07:40.159Z,91.15
2022-09-15T11:08:40.579Z,91.35
2022-09-15T11:09:39.728Z,92.36
2022-09-15T11:10:41.228Z,91.75
2022-09-15T11:11:39.939Z,91.50
2022-09-15T11:12:39.969Z,91.80
2022-09-15T11:13:39.088Z,92.80
2022-09-15T11:14:39.898Z,93.21
2022-09-15T11:15:40.088Z,93.21
2022-09-15T11:16:40.013Z,93.35
2022-09-15T11:17:39.874Z,93.41
2022-09-15T11:18:39.828Z,92.75
2022-09-15T11:19:40.107Z,93.35
2022-09-15T11:20:40.218Z,93.76
2022-09-15T11:21:40.119Z,93.55
2022-09-15T11:22:39.018Z,92.95
2022-09-15T11:23:39.978Z,94.01
2022-09-15T11:24:39.688Z,94.21
2022-09-15T11:25:40.127Z,93.31
2022-09-15T11:26:39.618Z,93.81
2022-09-15T11:27:38.968Z,93.61
2022-09-15T11:28:39.649Z,93.41
2022-09-15T11:29:39.728Z,93.11
2022-09-15T11:30:38.928Z,93.31
2022-09-15T11:31:40.593Z,92.91
2022-09-15T11:32:39.399Z,93.11
2022-09-15T11:33:39.788Z,92.80
2022-09-15T11:34:39.688Z,93.27
2022-09-15T11:35:38.878Z,91.96
2022-09-15T11:36:39.658Z,92.66
2022-09-15T11:37:39.438Z,92.16
2022-09-15T11:38:39.639Z,93.73
2022-09-15T11:39:39.488Z,92.02
2022-09-15T11:40:39.819Z,91.91
2022-09-15T11:41:38.998Z,89.90
2022-09-15T11:42:39.739Z,92.52
2022-09-15T11:43:39.449Z,91.31
2022-09-15T11:44:39.708Z,92.02
2022-09-15T11:45:38.768Z,90.30
2022-09-15T11:46:40.483Z,91.21
2022-09-15T11:47:40.643Z,92.22
2022-09-15T11:48:38.739Z,91.31
2022-09-15T11:49:39.550Z,90.91
2022-09-15T11:50:39.508Z,91.41
2022-09-15T11:51:38.718Z,91.11
2022-09-15T11:52:39.398Z,91.31
2022-09-15T11:53:39.537Z,91.71
2022-09-15T11:54:39.398Z,91.21
2022-09-15T11:55:39.678Z,90.81
2022-09-15T11:56:40.389Z,91.01
2022-09-15T11:57:40.099Z,90.41
2022-09-15T11:58:39.324Z,90.30
2022-09-15T11:59:39.421Z,91.41
2022-09-15T12:00:39.288Z,91.01
2022-09-15T12:01:38.646Z,91.21
2022-09-15T12:02:39.675Z,90.81
2022-09-15T12:03:38.590Z,91.41
2022-09-15T12:04:38.588Z,91.96
2022-09-15T12:05:40.571Z,91.25
2022-09-15T12:06:43.268Z,91.61
2022-09-15T12:07:38.539Z,91.55
2022-09-15T12:08:39.870Z,90.85
2022-09-15T12:09:39.314Z,92.02
2022-09-15T12:10:39.898Z,92.32
2022-09-15T12:11:39.240Z,92.72
2022-09-15T12:12:39.259Z,91.82
2022-09-15T12:13:39.519Z,91.31
2022-09-15T12:14:39.431Z,91.37
2022-09-15T12:15:39.133Z,90.61
2022-09-15T12:16:39.329Z,90.70
2022-09-15T12:17:39.079Z,90.30
2022-09-15T12:18:42.744Z,90.91
2022-09-15T12:19:38.429Z,91.82
2022-09-15T12:20:39.969Z,91.91
2022-09-15T12:21:39.139Z,90.97
2022-09-15T12:22:39.208Z,89.86
2022-09-15T12:23:39.128Z,89.56
2022-09-15T12:24:39.041Z,90.36
2022-09-15T12:25:39.191Z,90.36
2022-09-15T12:26:38.979Z,90.77
2022-09-15T12:27:40.359Z,90.97
2022-09-15T12:28:38.920Z,90.36
2022-09-15T12:29:41.935Z,89.56
2022-09-15T12:30:39.088Z,89.01
2022-09-15T12:31:39.227Z,88.71
2022-09-15T12:32:39.699Z,89.42
2022-09-15T12:33:39.628Z,88.21
2022-09-15T12:34:39.629Z,89.11
2022-09-15T12:35:39.538Z,88.91
2022-09-15T12:36:38.608Z,88.21
2022-09-15T12:37:39.629Z,88.31
2022-09-15T12:38:39.038Z,87.91
2022-09-15T12:39:38.858Z,89.27
2022-09-15T12:40:39.175Z,88.47
2022-09-15T12:41:38.809Z,89.07
2022-09-15T12:42:40.168Z,88.27
2022-09-15T12:43:39.229Z,88.27
2022-09-15T12:44:39.009Z,87.66
2022-09-15T12:45:38.948Z,88.23
2022-09-15T12:46:39.006Z,87.73
2022-09-15T12:47:39.549Z,85.92
2022-09-15T12:48:38.208Z,87.62
2022-09-15T12:49:39.139Z,87.32
2022-09-15T12:50:38.899Z,86.68
2022-09-15T12:51:38.839Z,86.08
2022-09-15T12:52:38.878Z,87.08
2022-09-15T12:53:40.854Z,86.28